createdAt,value
2023-01-19T00:02:16.705Z,3.96
2023-01-19T00:05:18.892Z,3.93
2023-01-19T00:08:21.124Z,3.91
2023-01-19T00:11:24.047Z,3.90
2023-01-19T00:14:26.380Z,3.90
2023-01-19T00:17:28.492Z,3.91
2023-01-19T00:20:35.632Z,3.93
2023-01-19T00:23:37.701Z,3.86
2023-01-19T00:26:43.026Z,3.90
2023-01-19T00:29:45.272Z,3.85
2023-01-19T00:32:47.347Z,3.84
2023-01-19T00:35:53.289Z,3.85
2023-01-19T00:38:55.405Z,3.87
2023-01-19T00:42:16.239Z,3.89
2023-01-19T00:45:20.814Z,3.81
2023-01-19T00:48:23.035Z,3.78
2023-01-19T00:51:25.583Z,3.79
2023-01-19T00:54:27.806Z,3.81
2023-01-19T00:57:29.949Z,3.75
2023-01-19T01:00:32.373Z,3.78
2023-01-19T01:03:34.515Z,3.73
2023-01-19T01:06:36.651Z,3.73
2023-01-19T01:09:39.007Z,3.72
2023-01-19T01:12:41.478Z,3.72
2023-01-19T01:15:58.735Z,3.72
2023-01-19T01:19:00.905Z,3.71
2023-01-19T01:22:02.955Z,3.69
2023-01-19T01:25:05.354Z,3.70
2023-01-19T01:28:08.977Z,3.72
2023-01-19T01:31:11.085Z,3.70
2023-01-19T01:34:13.296Z,3.70
2023-01-19T01:37:15.482Z,3.72
2023-01-19T01:40:18.644Z,3.71
2023-01-19T01:43:20.942Z,3.67
2023-01-19T01:46:23.096Z,3.66
2023-01-19T01:49:25.387Z,3.64
2023-01-19T01:52:29.593Z,3.65
2023-01-19T01:55:35.072Z,3.65
2023-01-19T01:58:39.110Z,3.65
2023-01-19T02:02:00.296Z,3.65
2023-01-19T02:05:09.646Z,3.64
2023-01-19T02:08:49.586Z,3.68
2023-01-19T02:12:12.545Z,3.65
2023-01-19T02:15:17.864Z,3.66
2023-01-19T02:18:23.200Z,3.66
2023-01-19T02:21:43.156Z,3.64
2023-01-19T02:24:45.442Z,3.65
2023-01-19T02:27:48.835Z,3.62
2023-01-19T02:30:51.037Z,3.57
2023-01-19T02:33:54.379Z,3.58
2023-01-19T02:37:13.817Z,3.56
2023-01-19T02:40:22.129Z,3.54
2023-01-19T02:43:25.262Z,3.55
2023-01-19T02:46:27.504Z,3.55
2023-01-19T02:49:30.367Z,3.51
2023-01-19T02:52:32.519Z,3.53
2023-01-19T02:55:34.685Z,3.45
2023-01-19T02:58:57.038Z,3.38
2023-01-19T03:02:47.985Z,3.26
2023-01-19T03:05:59.142Z,3.02
2023-01-19T03:09:20.069Z,2.96
2023-01-19T03:12:46.259Z,2.81
2023-01-19T03:16:14.718Z,2.59
2023-01-19T03:19:44.081Z,2.41
2023-01-19T03:22:50.901Z,2.32
2023-01-19T03:25:54.691Z,2.27
2023-01-19T03:29:00.705Z,2.22
2023-01-19T03:32:09.294Z,2.19
2023-01-19T03:35:14.450Z,2.17
2023-01-19T03:38:25.091Z,2.05
2023-01-19T03:41:28.713Z,1.89
2023-01-19T03:44:35.027Z,1.76
2023-01-19T03:47:37.514Z,1.69
2023-01-19T03:50:39.731Z,1.61
2023-01-19T03:53:42.135Z,1.54
2023-01-19T03:56:44.949Z,1.52
2023-01-19T03:59:47.005Z,1.54
2023-01-19T04:02:49.141Z,1.49
2023-01-19T04:05:51.729Z,1.46
2023-01-19T04:08:54.766Z,1.46
2023-01-19T04:11:57.458Z,1.42
2023-01-19T04:14:59.571Z,1.39
2023-01-19T04:18:01.944Z,1.38
2023-01-19T04:21:07.109Z,1.38
2023-01-19T04:24:10.518Z,1.37
2023-01-19T04:27:12.603Z,1.39
2023-01-19T04:30:15.203Z,1.37
2023-01-19T04:33:17.350Z,1.35
2023-01-19T04:36:19.511Z,1.33
2023-01-19T04:39:23.265Z,1.30
2023-01-19T04:42:25.358Z,1.30
2023-01-19T04:45:27.421Z,1.28
2023-01-19T04:48:29.856Z,1.29
2023-01-19T04:51:32.014Z,1.30
2023-01-19T04:54:34.153Z,1.29
2023-01-19T04:57:36.355Z,1.26
2023-01-19T05:00:41.178Z,1.25
2023-01-19T05:03:43.327Z,1.26
2023-01-19T05:06:45.685Z,1.28
2023-01-19T05:09:48.334Z,1.28
2023-01-19T05:12:51.392Z,1.28
2023-01-19T05:15:53.629Z,1.27
2023-01-19T05:18:55.822Z,1.25
2023-01-19T05:21:58.148Z,1.25
2023-01-19T05:25:01.887Z,1.26
2023-01-19T05:28:04.326Z,1.24
2023-01-19T05:31:06.692Z,1.23
2023-01-19T05:34:11.707Z,1.24
2023-01-19T05:37:14.474Z,1.23
2023-01-19T05:40:16.815Z,1.21
2023-01-19T05:43:18.926Z,1.15
2023-01-19T05:46:21.073Z,1.13
2023-01-19T05:49:23.312Z,1.11
2023-01-19T05:52:25.410Z,1.09
2023-01-19T05:55:28.039Z,1.08
2023-01-19T05:58:30.160Z,1.06
2023-01-19T06:01:38.846Z,1.04
2023-01-19T06:04:42.043Z,1.03
2023-01-19T06:07:44.195Z,1.00
2023-01-19T06:10:46.371Z,0.99
2023-01-19T06:13:48.600Z,1.01
2023-01-19T06:16:50.862Z,1.01
2023-01-19T06:19:53.087Z,1.05
2023-01-19T06:22:58.047Z,1.05
2023-01-19T06:26:00.279Z,1.10
2023-01-19T06:29:02.554Z,1.20
2023-01-19T06:32:04.978Z,1.17
2023-01-19T06:35:08.062Z,1.17
2023-01-19T06:38:10.249Z,1.20
2023-01-19T06:41:12.395Z,1.24
2023-01-19T06:44:14.562Z,1.24
2023-01-19T06:47:16.768Z,1.24
2023-01-19T06:50:18.990Z,1.24
2023-01-19T06:53:22.410Z,1.21
2023-01-19T06:56:24.594Z,1.22
2023-01-19T06:59:27.085Z,1.21
2023-01-19T07:02:29.552Z,1.23
2023-01-19T07:05:31.899Z,1.21
2023-01-19T07:08:35.342Z,1.21
2023-01-19T07:11:37.748Z,1.21
2023-01-19T07:14:39.982Z,1.22
2023-01-19T07:17:42.458Z,1.20
2023-01-19T07:20:46.954Z,1.20
2023-01-19T07:23:50.442Z,1.20
2023-01-19T07:26:52.555Z,1.19
2023-01-19T07:29:54.954Z,1.20
2023-01-19T07:32:58.981Z,1.20
2023-01-19T07:36:01.280Z,1.20
2023-01-19T07:39:03.395Z,1.20
2023-01-19T07:42:06.872Z,1.20
2023-01-19T07:45:09.446Z,1.19
2023-01-19T07:48:11.599Z,1.22
2023-01-19T07:51:18.113Z,1.24
2023-01-19T07:54:20.948Z,1.20
2023-01-19T07:57:24.233Z,1.23
2023-01-19T08:00:26.621Z,1.24
2023-01-19T08:03:28.668Z,1.24
2023-01-19T08:06:35.400Z,1.23
2023-01-19T08:09:37.440Z,1.24
2023-01-19T08:12:39.706Z,1.24
2023-01-19T08:15:41.830Z,1.23
2023-01-19T08:18:44.084Z,1.19
2023-01-19T08:21:46.577Z,1.25
2023-01-19T08:24:50.381Z,1.22
2023-01-19T08:27:54.979Z,1.21
2023-01-19T08:30:57.858Z,1.20
2023-01-19T08:34:00.171Z,1.21
2023-01-19T08:37:02.267Z,1.27
2023-01-19T08:40:04.773Z,1.27
2023-01-19T08:43:09.900Z,1.30
2023-01-19T08:46:12.664Z,1.29
2023-01-19T08:49:15.908Z,1.30
2023-01-19T08:52:18.020Z,1.29
2023-01-19T08:55:20.501Z,1.30
2023-01-19T08:58:22.650Z,1.31
2023-01-19T09:01:25.642Z,1.38
2023-01-19T09:04:28.063Z,1.38
2023-01-19T09:07:32.567Z,1.35
2023-01-19T09:10:39.656Z,1.32
2023-01-19T09:13:42.326Z,1.39
2023-01-19T09:16:44.587Z,1.45
2023-01-19T09:19:46.897Z,1.49
2023-01-19T09:22:49.519Z,1.46
2023-01-19T09:25:57.333Z,1.48
2023-01-19T09:28:59.991Z,1.50
2023-01-19T09:32:02.808Z,1.54
2023-01-19T09:35:05.468Z,1.57
2023-01-19T09:38:09.107Z,1.62
2023-01-19T09:41:22.736Z,1.64
2023-01-19T09:44:34.655Z,1.66
2023-01-19T09:47:38.503Z,1.72
2023-01-19T09:50:46.874Z,1.77
2023-01-19T09:54:12.159Z,1.75
2023-01-19T09:57:15.019Z,1.82
2023-01-19T10:00:18.752Z,1.82
2023-01-19T10:03:21.285Z,1.87
2023-01-19T10:06:23.801Z,1.88
2023-01-19T10:09:40.722Z,1.93
2023-01-19T10:13:04.871Z,1.85
2023-01-19T10:16:26.302Z,1.81
2023-01-19T10:19:41.367Z,1.85
2023-01-19T10:22:49.916Z,1.90
2023-01-19T10:25:52.614Z,1.88
2023-01-19T10:28:59.649Z,1.91
2023-01-19T10:32:33.619Z,1.92
2023-01-19T10:35:36.469Z,1.94
2023-01-19T10:38:38.639Z,1.97
2023-01-19T10:41:49.169Z,1.92
2023-01-19T10:44:51.315Z,1.96
2023-01-19T10:47:55.659Z,1.96
2023-01-19T10:51:05.986Z,1.94
2023-01-19T10:54:13.114Z,1.92
2023-01-19T10:57:26.542Z,1.86
2023-01-19T11:00:31.705Z,1.88
2023-01-19T11:03:33.797Z,1.83
2023-01-19T11:06:35.967Z,1.78
2023-01-19T11:09:38.082Z,1.73
2023-01-19T11:12:42.934Z,1.68
2023-01-19T11:15:47.503Z,1.52
2023-01-19T11:18:53.874Z,1.39
2023-01-19T11:22:21.872Z,1.31
2023-01-19T11:25:31.177Z,1.31
2023-01-19T11:28:37.252Z,1.18
2023-01-19T11:31:39.458Z,1.17
2023-01-19T11:34:41.685Z,1.13
2023-01-19T11:37:43.910Z,1.13
2023-01-19T11:40:57.710Z,1.05
2023-01-19T11:44:24.767Z,0.99
2023-01-19T11:47:42.937Z,0.94
2023-01-19T11:50:46.134Z,1.00
2023-01-19T11:53:52.588Z,0.99
2023-01-19T11:56:55.877Z,1.01
2023-01-19T12:00:03.630Z,0.97
2023-01-19T12:03:08.964Z,0.99
2023-01-19T12:06:18.437Z,1.10
2023-01-19T12:09:27.096Z,1.07
2023-01-19T12:12:35.539Z,1.12
2023-01-19T12:15:44.505Z,1.13
2023-01-19T12:18:59.556Z,1.21
2023-01-19T12:22:03.042Z,1.15
2023-01-19T12:25:25.356Z,1.19
2023-01-19T12:28:39.108Z,1.26
2023-01-19T12:31:43.365Z,1.35
2023-01-19T12:34:51.974Z,1.44
2023-01-19T12:37:54.140Z,1.47
2023-01-19T12:41:16.482Z,1.30
2023-01-19T12:44:25.119Z,1.25
2023-01-19T12:47:27.388Z,1.19
2023-01-19T12:50:38.068Z,1.20
2023-01-19T12:53:40.280Z,1.09
2023-01-19T12:56:42.542Z,1.14
2023-01-19T12:59:45.005Z,1.18
2023-01-19T13:02:55.996Z,1.21
2023-01-19T13:05:58.438Z,1.28
2023-01-19T13:09:01.456Z,1.31
2023-01-19T13:12:15.778Z,1.24
2023-01-19T13:15:35.935Z,1.28
2023-01-19T13:18:41.800Z,1.30
2023-01-19T13:21:47.018Z,1.31
2023-01-19T13:25:06.298Z,1.34
2023-01-19T13:28:10.330Z,1.36
2023-01-19T13:31:14.237Z,1.39
2023-01-19T13:34:23.103Z,1.39
2023-01-19T13:37:45.963Z,1.40
2023-01-19T13:40:48.859Z,1.44
2023-01-19T13:44:32.201Z,1.43
2023-01-19T13:47:46.924Z,1.49
2023-01-19T13:51:02.995Z,1.50
2023-01-19T13:54:06.372Z,1.53
2023-01-19T13:57:27.155Z,1.56
2023-01-19T14:00:31.063Z,1.57
2023-01-19T14:03:33.325Z,1.56
2023-01-19T14:06:44.682Z,1.60
2023-01-19T14:09:46.772Z,1.59
2023-01-19T14:13:02.914Z,1.61
2023-01-19T14:16:07.977Z,1.59
2023-01-19T14:19:10.199Z,1.58
2023-01-19T14:22:12.322Z,1.59
2023-01-19T14:25:29.763Z,1.55
2023-01-19T14:28:40.352Z,1.50
2023-01-19T14:31:48.837Z,1.52
2023-01-19T14:35:05.912Z,1.49
2023-01-19T14:38:14.284Z,1.49
2023-01-19T14:41:37.552Z,1.50
2023-01-19T14:44:40.455Z,1.52
2023-01-19T14:47:45.564Z,1.57
2023-01-19T14:51:02.338Z,1.55
2023-01-19T14:54:05.493Z,1.47
2023-01-19T14:57:13.236Z,1.49
2023-01-19T15:00:20.348Z,1.49
2023-01-19T15:03:26.829Z,1.46
2023-01-19T15:06:38.416Z,1.41
2023-01-19T15:09:41.074Z,1.27
2023-01-19T15:12:43.477Z,1.17
2023-01-19T15:15:45.733Z,1.06
2023-01-19T15:18:47.915Z,0.97
2023-01-19T15:21:51.445Z,0.87
2023-01-19T15:24:57.725Z,0.80
2023-01-19T15:28:00.239Z,0.75
2023-01-19T15:31:02.593Z,0.71
2023-01-19T15:34:04.653Z,0.69
2023-01-19T15:37:06.995Z,0.71
2023-01-19T15:40:11.403Z,0.74
2023-01-19T15:43:13.597Z,0.75
2023-01-19T15:46:18.707Z,0.75
2023-01-19T15:49:21.752Z,0.77
2023-01-19T15:52:23.900Z,0.75
2023-01-19T15:55:26.097Z,0.75
2023-01-19T15:58:28.271Z,0.78
2023-01-19T16:01:34.810Z,0.79
2023-01-19T16:04:36.907Z,0.81
2023-01-19T16:07:39.081Z,0.82
2023-01-19T16:10:42.698Z,0.83
2023-01-19T16:13:46.366Z,0.84
2023-01-19T16:16:49.367Z,0.82
2023-01-19T16:19:51.656Z,0.84
2023-01-19T16:22:56.516Z,0.84
2023-01-19T16:26:09.741Z,0.86
2023-01-19T16:29:11.975Z,0.86
2023-01-19T16:32:15.212Z,0.85
2023-01-19T16:35:17.646Z,0.86
2023-01-19T16:38:21.989Z,0.86
2023-01-19T16:41:24.411Z,0.84
2023-01-19T16:44:26.798Z,0.80
2023-01-19T16:47:28.922Z,0.77
2023-01-19T16:50:31.070Z,0.72
2023-01-19T16:53:37.202Z,0.63
2023-01-19T16:56:41.649Z,0.58
2023-01-19T16:59:45.287Z,0.50
2023-01-19T17:02:48.783Z,0.43
2023-01-19T17:05:53.172Z,0.37
2023-01-19T17:08:55.779Z,0.26
2023-01-19T17:11:58.588Z,0.23
2023-01-19T17:15:02.512Z,0.20
2023-01-19T17:18:07.200Z,0.21
2023-01-19T17:21:10.995Z,0.20
2023-01-19T17:24:14.243Z,0.29
2023-01-19T17:27:17.657Z,0.19
2023-01-19T17:30:20.873Z,0.18
2023-01-19T17:33:25.509Z,0.13
2023-01-19T17:36:32.688Z,0.12
2023-01-19T17:39:35.805Z,0.12
2023-01-19T17:42:43.428Z,0.11
2023-01-19T17:45:46.537Z,0.09
2023-01-19T17:49:02.380Z,0.06
2023-01-19T17:52:05.974Z,0.04
2023-01-19T17:55:09.666Z,0.00
2023-01-19T17:58:14.375Z,-0.03
2023-01-19T18:01:24.029Z,-0.07
2023-01-19T18:04:29.164Z,-0.13
2023-01-19T18:07:33.519Z,-0.18
2023-01-19T18:10:38.006Z,-0.25
2023-01-19T18:13:43.791Z,-0.29
2023-01-19T18:16:47.242Z,-0.33
2023-01-19T18:19:52.587Z,-0.38
2023-01-19T18:22:56.949Z,-0.42
2023-01-19T18:26:11.589Z,-0.45
2023-01-19T18:29:17.216Z,-0.53
2023-01-19T18:32:21.313Z,-0.59
2023-01-19T18:35:24.831Z,-0.56
2023-01-19T18:38:29.284Z,-0.53
2023-01-19T18:41:36.170Z,-0.59
2023-01-19T18:44:39.269Z,-0.63
2023-01-19T18:47:42.883Z,-0.68
2023-01-19T18:50:46.922Z,-0.71
2023-01-19T18:53:52.114Z,-0.78
2023-01-19T18:56:56.102Z,-0.79
2023-01-19T18:59:59.891Z,-0.84
2023-01-19T19:03:06.583Z,-0.76
2023-01-19T19:06:11.338Z,-0.75
2023-01-19T19:09:15.886Z,-0.72
2023-01-19T19:12:20.431Z,-0.69
2023-01-19T19:15:23.515Z,-0.71
2023-01-19T19:18:26.967Z,-0.71
2023-01-19T19:21:30.722Z,-0.77
2023-01-19T19:24:34.536Z,-0.82
2023-01-19T19:27:38.770Z,-0.94
2023-01-19T19:30:42.114Z,-1.05
2023-01-19T19:33:46.249Z,-1.09
2023-01-19T19:36:50.053Z,-1.17
2023-01-19T19:39:53.193Z,-1.18
2023-01-19T19:42:58.729Z,-1.19
2023-01-19T19:46:11.139Z,-1.24
2023-01-19T19:49:14.761Z,-1.26
2023-01-19T19:52:18.251Z,-1.30
2023-01-19T19:55:21.782Z,-1.34
2023-01-19T19:58:26.290Z,-1.33
2023-01-19T20:01:33.797Z,-1.37
2023-01-19T20:04:39.867Z,-1.37
2023-01-19T20:07:47.734Z,-1.39
2023-01-19T20:10:51.624Z,-1.44
2023-01-19T20:13:55.950Z,-1.46
2023-01-19T20:16:59.607Z,-1.46
2023-01-19T20:20:04.599Z,-1.50
2023-01-19T20:23:09.649Z,-1.53
2023-01-19T20:26:15.361Z,-1.62
2023-01-19T20:29:20.694Z,-1.62
2023-01-19T20:32:25.757Z,-1.67
2023-01-19T20:35:31.471Z,-1.69
2023-01-19T20:38:35.032Z,-1.72
2023-01-19T20:41:43.926Z,-1.72
2023-01-19T20:44:47.398Z,-1.72
2023-01-19T20:47:51.761Z,-1.75
2023-01-19T20:51:01.238Z,-1.77
2023-01-19T20:54:04.821Z,-1.81
2023-01-19T20:57:08.457Z,-1.85
2023-01-19T21:00:14.605Z,-1.90
2023-01-19T21:03:19.665Z,-1.92
2023-01-19T21:06:25.567Z,-1.92
2023-01-19T21:09:28.584Z,-1.91
2023-01-19T21:12:31.168Z,-1.87
2023-01-19T21:15:33.771Z,-1.90
2023-01-19T21:18:36.187Z,-1.92
2023-01-19T21:21:38.730Z,-1.92
2023-01-19T21:24:42.175Z,-1.97
2023-01-19T21:27:46.514Z,-1.96
2023-01-19T21:30:50.293Z,-1.98
2023-01-19T21:33:54.474Z,-1.99
2023-01-19T21:36:56.782Z,-2.01
2023-01-19T21:39:59.133Z,-2.02
2023-01-19T21:43:01.367Z,-2.05
2023-01-19T21:46:11.110Z,-2.05
2023-01-19T21:49:18.356Z,-2.04
2023-01-19T21:52:20.597Z,-2.05
2023-01-19T21:55:22.659Z,-2.06
2023-01-19T21:58:24.900Z,-2.07
2023-01-19T22:01:27.094Z,-2.11
2023-01-19T22:04:29.941Z,-2.25
2023-01-19T22:07:33.131Z,-2.27
2023-01-19T22:10:37.440Z,-2.30
2023-01-19T22:13:40.563Z,-2.31
2023-01-19T22:16:42.740Z,-2.31
2023-01-19T22:19:46.613Z,-2.25
2023-01-19T22:22:48.712Z,-2.18
2023-01-19T22:25:50.763Z,-2.19
2023-01-19T22:28:57.226Z,-2.20
2023-01-19T22:31:59.441Z,-2.29
2023-01-19T22:35:03.427Z,-2.35
2023-01-19T22:38:05.795Z,-2.75
2023-01-19T22:41:16.624Z,-2.92
2023-01-19T22:44:21.205Z,-3.03
2023-01-19T22:47:23.260Z,-3.11
2023-01-19T22:50:25.350Z,-3.04
2023-01-19T22:53:28.022Z,-2.96
2023-01-19T22:56:32.208Z,-2.89
2023-01-19T22:59:34.316Z,-2.77
2023-01-19T23:02:36.450Z,-2.69
2023-01-19T23:05:38.825Z,-2.61
2023-01-19T23:08:41.926Z,-2.50
2023-01-19T23:11:48.585Z,-2.34
2023-01-19T23:14:50.646Z,-2.27
2023-01-19T23:17:53.764Z,-2.23
2023-01-19T23:20:56.272Z,-2.23
2023-01-19T23:24:04.204Z,-2.24
2023-01-19T23:27:06.408Z,-2.26
2023-01-19T23:30:09.215Z,-2.26
2023-01-19T23:33:11.328Z,-2.30
2023-01-19T23:36:14.602Z,-2.30
2023-01-19T23:39:20.136Z,-2.31
2023-01-19T23:42:22.513Z,-2.30
2023-01-19T23:45:24.687Z,-2.32
2023-01-19T23:48:26.849Z,-2.36
2023-01-19T23:51:31.967Z,-2.41
2023-01-19T23:54:34.189Z,-2.43
2023-01-19T23:57:36.345Z,-2.44
